Oaktown, Indiana
Current Conditions -  °F | °C
As of 9:53 AM on Thursday 29 Jan 2015 (Local Time) from KLWV Reporting Station
Haze Haze  
Wind Chill:   Ceiling: 1800
Heat Index:   Visibility: 5mi
Dew Point:   Wind: 17mph
Humidity: 79%   Direction: 290°WNW
Pressure: 29.99"   Gusts: 31mph
Location:  38.87°N, 87.44°W
Report Text: KLWV 291553Z AUTO 29015G27KT 5SM HZ OVC018 05/02 A2999 RMK AO2 PK WND 29029/1535 SLP156 T00500017
Loading
Personal Weather Stations






























Interactive Weather Map New forecast layout! Learn more

10-Day Weather Forecast

Advertisements
Track Severe Weather on mobile